sensor_id;sensor_type;location;lat;lon;timestamp;temperature;humidity
69281;SHT31;56392;51.082;17.080;2023-03-05T00:03:02;3.59;61.50
69281;SHT31;56392;51.082;17.080;2023-03-05T00:08:26;3.58;61.94
69281;SHT31;56392;51.082;17.080;2023-03-05T00:13:51;3.59;61.97
69281;SHT31;56392;51.082;17.080;2023-03-05T00:19:14;3.56;62.48
69281;SHT31;56392;51.082;17.080;2023-03-05T00:24:37;3.56;63.20
69281;SHT31;56392;51.082;17.080;2023-03-05T00:30:03;3.58;61.86
69281;SHT31;56392;51.082;17.080;2023-03-05T00:35:26;3.54;63.32
69281;SHT31;56392;51.082;17.080;2023-03-05T00:40:49;3.54;62.46
69281;SHT31;56392;51.082;17.080;2023-03-05T00:46:14;3.49;63.23
69281;SHT31;56392;51.082;17.080;2023-03-05T00:51:37;3.43;61.60
69281;SHT31;56392;51.082;17.080;2023-03-05T00:57:00;3.49;62.44
69281;SHT31;56392;51.082;17.080;2023-03-05T01:02:25;3.49;64.17
69281;SHT31;56392;51.082;17.080;2023-03-05T01:07:51;3.48;64.36
69281;SHT31;56392;51.082;17.080;2023-03-05T01:13:14;3.43;64.37
69281;SHT31;56392;51.082;17.080;2023-03-05T01:18:39;3.40;63.82
69281;SHT31;56392;51.082;17.080;2023-03-05T01:24:02;3.38;64.76
69281;SHT31;56392;51.082;17.080;2023-03-05T01:29:26;3.40;63.95
69281;SHT31;56392;51.082;17.080;2023-03-05T01:34:50;3.42;64.95
69281;SHT31;56392;51.082;17.080;2023-03-05T01:40:16;3.38;65.89
69281;SHT31;56392;51.082;17.080;2023-03-05T01:51:56;3.36;63.87
69281;SHT31;56392;51.082;17.080;2023-03-05T01:57:22;3.38;65.19
69281;SHT31;56392;51.082;17.080;2023-03-05T02:02:49;3.34;65.51
69281;SHT31;56392;51.082;17.080;2023-03-05T02:08:15;3.34;63.73
69281;SHT31;56392;51.082;17.080;2023-03-05T02:13:38;3.32;63.66
69281;SHT31;56392;51.082;17.080;2023-03-05T02:19:02;3.32;65.12
69281;SHT31;56392;51.082;17.080;2023-03-05T02:24:35;3.29;65.84
69281;SHT31;56392;51.082;17.080;2023-03-05T02:29:58;3.21;65.96
69281;SHT31;56392;51.082;17.080;2023-03-05T02:35:21;3.22;66.13
69281;SHT31;56392;51.082;17.080;2023-03-05T02:40:46;3.18;66.81
69281;SHT31;56392;51.082;17.080;2023-03-05T02:46:09;3.08;68.61
69281;SHT31;56392;51.082;17.080;2023-03-05T02:51:32;3.08;68.70
69281;SHT31;56392;51.082;17.080;2023-03-05T02:56:56;3.04;68.41
69281;SHT31;56392;51.082;17.080;2023-03-05T03:02:19;2.98;69.45
69281;SHT31;56392;51.082;17.080;2023-03-05T03:07:43;2.90;69.33
69281;SHT31;56392;51.082;17.080;2023-03-05T03:13:07;2.85;68.88
69281;SHT31;56392;51.082;17.080;2023-03-05T03:18:30;2.77;69.88
69281;SHT31;56392;51.082;17.080;2023-03-05T03:23:53;2.76;69.58
69281;SHT31;56392;51.082;17.080;2023-03-05T03:29:18;2.68;69.54
69281;SHT31;56392;51.082;17.080;2023-03-05T03:34:41;2.63;70.24
69281;SHT31;56392;51.082;17.080;2023-03-05T03:40:06;2.58;70.66
69281;SHT31;56392;51.082;17.080;2023-03-05T03:45:30;2.61;70.58
69281;SHT31;56392;51.082;17.080;2023-03-05T03:50:53;2.58;70.83
69281;SHT31;56392;51.082;17.080;2023-03-05T03:56:16;2.56;70.71
69281;SHT31;56392;51.082;17.080;2023-03-05T04:01:41;2.58;70.86
69281;SHT31;56392;51.082;17.080;2023-03-05T04:07:04;2.60;71.16
69281;SHT31;56392;51.082;17.080;2023-03-05T04:12:27;2.60;70.95
69281;SHT31;56392;51.082;17.080;2023-03-05T04:17:51;2.61;70.43
69281;SHT31;56392;51.082;17.080;2023-03-05T04:23:15;2.63;70.47
69281;SHT31;56392;51.082;17.080;2023-03-05T04:28:38;2.63;70.29
69281;SHT31;56392;51.082;17.080;2023-03-05T04:34:02;2.58;70.11
69281;SHT31;56392;51.082;17.080;2023-03-05T04:39:25;2.60;70.37
69281;SHT31;56392;51.082;17.080;2023-03-05T04:44:49;2.57;71.05
69281;SHT31;56392;51.082;17.080;2023-03-05T04:50:14;2.57;70.62
69281;SHT31;56392;51.082;17.080;2023-03-05T04:55:37;2.61;70.70
69281;SHT31;56392;51.082;17.080;2023-03-05T05:01:01;2.66;70.83
69281;SHT31;56392;51.082;17.080;2023-03-05T05:06:25;2.63;71.12
69281;SHT31;56392;51.082;17.080;2023-03-05T05:11:49;2.60;71.73
69281;SHT31;56392;51.082;17.080;2023-03-05T05:17:12;2.60;71.96
69281;SHT31;56392;51.082;17.080;2023-03-05T05:22:36;2.61;72.05
69281;SHT31;56392;51.082;17.080;2023-03-05T05:27:59;2.63;72.15
69281;SHT31;56392;51.082;17.080;2023-03-05T05:33:23;2.66;71.94
69281;SHT31;56392;51.082;17.080;2023-03-05T05:38:48;2.66;71.97
69281;SHT31;56392;51.082;17.080;2023-03-05T05:44:11;2.66;72.12
69281;SHT31;56392;51.082;17.080;2023-03-05T05:49:34;2.66;72.66
69281;SHT31;56392;51.082;17.080;2023-03-05T05:54:58;2.64;73.11
69281;SHT31;56392;51.082;17.080;2023-03-05T06:00:22;2.64;73.53
69281;SHT31;56392;51.082;17.080;2023-03-05T06:05:48;2.67;74.04
69281;SHT31;56392;51.082;17.080;2023-03-05T06:11:13;2.68;74.16
69281;SHT31;56392;51.082;17.080;2023-03-05T06:16:36;2.67;74.70
69281;SHT31;56392;51.082;17.080;2023-03-05T06:21:59;2.64;75.82
69281;SHT31;56392;51.082;17.080;2023-03-05T06:27:24;2.60;76.76
69281;SHT31;56392;51.082;17.080;2023-03-05T06:32:47;2.64;77.38
69281;SHT31;56392;51.082;17.080;2023-03-05T06:38:10;2.63;78.05
69281;SHT31;56392;51.082;17.080;2023-03-05T06:43:35;2.66;78.87
69281;SHT31;56392;51.082;17.080;2023-03-05T06:49:00;2.61;78.73
69281;SHT31;56392;51.082;17.080;2023-03-05T06:54:24;2.58;79.65
69281;SHT31;56392;51.082;17.080;2023-03-05T06:59:48;2.53;80.37
69281;SHT31;56392;51.082;17.080;2023-03-05T07:05:12;2.54;80.84
69281;SHT31;56392;51.082;17.080;2023-03-05T07:10:37;2.64;80.12
69281;SHT31;56392;51.082;17.080;2023-03-05T07:16:05;2.74;80.03
69281;SHT31;56392;51.082;17.080;2023-03-05T07:21:30;2.74;80.07
69281;SHT31;56392;51.082;17.080;2023-03-05T07:26:54;2.81;79.35
69281;SHT31;56392;51.082;17.080;2023-03-05T07:32:18;2.87;77.93
69281;SHT31;56392;51.082;17.080;2023-03-05T07:37:42;2.88;77.42
69281;SHT31;56392;51.082;17.080;2023-03-05T07:43:05;2.93;76.44
69281;SHT31;56392;51.082;17.080;2023-03-05T07:48:29;2.94;74.95
69281;SHT31;56392;51.082;17.080;2023-03-05T07:53:54;3.00;74.36
69281;SHT31;56392;51.082;17.080;2023-03-05T07:59:18;2.97;73.33
69281;SHT31;56392;51.082;17.080;2023-03-05T08:04:42;2.98;72.76
69281;SHT31;56392;51.082;17.080;2023-03-05T08:10:07;3.07;71.37
69281;SHT31;56392;51.082;17.080;2023-03-05T08:15:30;3.16;71.96
69281;SHT31;56392;51.082;17.080;2023-03-05T08:20:54;3.24;70.62
69281;SHT31;56392;51.082;17.080;2023-03-05T08:26:20;3.14;70.88
69281;SHT31;56392;51.082;17.080;2023-03-05T08:31:44;3.01;70.76
69281;SHT31;56392;51.082;17.080;2023-03-05T08:37:09;2.87;71.82
69281;SHT31;56392;51.082;17.080;2023-03-05T08:42:32;2.95;72.39
69281;SHT31;56392;51.082;17.080;2023-03-05T08:47:55;2.93;72.93
69281;SHT31;56392;51.082;17.080;2023-03-05T08:53:20;3.00;72.38
69281;SHT31;56392;51.082;17.080;2023-03-05T08:58:43;3.07;72.57
69281;SHT31;56392;51.082;17.080;2023-03-05T09:04:08;3.16;72.39
69281;SHT31;56392;51.082;17.080;2023-03-05T09:09:33;3.25;72.33
69281;SHT31;56392;51.082;17.080;2023-03-05T09:14:56;3.34;72.19
69281;SHT31;56392;51.082;17.080;2023-03-05T09:20:19;3.25;71.30
69281;SHT31;56392;51.082;17.080;2023-03-05T09:25:44;3.14;71.71
69281;SHT31;56392;51.082;17.080;2023-03-05T09:31:08;3.04;73.12
69281;SHT31;56392;51.082;17.080;2023-03-05T09:36:31;2.90;74.55
69281;SHT31;56392;51.082;17.080;2023-03-05T09:42:06;3.08;74.37
69281;SHT31;56392;51.082;17.080;2023-03-05T09:47:44;3.21;74.02
69281;SHT31;56392;51.082;17.080;2023-03-05T09:53:24;3.26;73.30
69281;SHT31;56392;51.082;17.080;2023-03-05T09:58:52;3.34;72.66
69281;SHT31;56392;51.082;17.080;2023-03-05T10:04:20;3.35;72.44
69281;SHT31;56392;51.082;17.080;2023-03-05T10:09:49;3.38;70.81
69281;SHT31;56392;51.082;17.080;2023-03-05T10:15:16;3.48;70.46
69281;SHT31;56392;51.082;17.080;2023-03-05T10:20:59;3.67;70.75
69281;SHT31;56392;51.082;17.080;2023-03-05T10:26:33;3.76;68.91
69281;SHT31;56392;51.082;17.080;2023-03-05T10:32:09;3.97;68.25
69281;SHT31;56392;51.082;17.080;2023-03-05T10:37:50;4.18;67.24
69281;SHT31;56392;51.082;17.080;2023-03-05T10:43:23;4.13;65.64
69281;SHT31;56392;51.082;17.080;2023-03-05T10:48:52;4.13;65.82
69281;SHT31;56392;51.082;17.080;2023-03-05T10:54:21;4.11;66.05
69281;SHT31;56392;51.082;17.080;2023-03-05T10:59:48;4.04;65.33
69281;SHT31;56392;51.082;17.080;2023-03-05T11:05:35;3.94;67.16
69281;SHT31;56392;51.082;17.080;2023-03-05T11:11:20;3.86;68.01
69281;SHT31;56392;51.082;17.080;2023-03-05T11:16:46;3.79;69.32
69281;SHT31;56392;51.082;17.080;2023-03-05T11:22:18;3.82;69.80
69281;SHT31;56392;51.082;17.080;2023-03-05T11:27:47;3.82;69.45
69281;SHT31;56392;51.082;17.080;2023-03-05T11:33:15;3.91;70.20
69281;SHT31;56392;51.082;17.080;2023-03-05T11:38:47;3.97;70.70
69281;SHT31;56392;51.082;17.080;2023-03-05T11:44:14;4.10;70.10
69281;SHT31;56392;51.082;17.080;2023-03-05T11:49:44;4.16;70.30
69281;SHT31;56392;51.082;17.080;2023-03-05T11:55:14;4.27;69.86
69281;SHT31;56392;51.082;17.080;2023-03-05T12:00:42;4.38;69.44
69281;SHT31;56392;51.082;17.080;2023-03-05T12:06:09;4.47;68.70
69281;SHT31;56392;51.082;17.080;2023-03-05T12:11:37;4.41;68.37
69281;SHT31;56392;51.082;17.080;2023-03-05T12:17:05;4.35;68.48
69281;SHT31;56392;51.082;17.080;2023-03-05T12:22:33;4.08;73.88
69281;SHT31;56392;51.082;17.080;2023-03-05T12:28:00;3.91;75.86
69281;SHT31;56392;51.082;17.080;2023-03-05T12:33:32;4.08;76.20
69281;SHT31;56392;51.082;17.080;2023-03-05T12:38:55;4.27;75.75
69281;SHT31;56392;51.082;17.080;2023-03-05T12:44:20;4.40;75.02
69281;SHT31;56392;51.082;17.080;2023-03-05T12:49:45;4.47;74.08
69281;SHT31;56392;51.082;17.080;2023-03-05T12:55:16;4.34;73.28
69281;SHT31;56392;51.082;17.080;2023-03-05T13:00:44;4.27;72.98
69281;SHT31;56392;51.082;17.080;2023-03-05T13:06:23;4.17;72.81
69281;SHT31;56392;51.082;17.080;2023-03-05T13:11:48;3.98;73.46
69281;SHT31;56392;51.082;17.080;2023-03-05T13:17:33;3.93;75.05
69281;SHT31;56392;51.082;17.080;2023-03-05T13:23:18;3.65;75.85
69281;SHT31;56392;51.082;17.080;2023-03-05T13:28:41;3.54;77.07
69281;SHT31;56392;51.082;17.080;2023-03-05T13:34:13;3.32;76.74
69281;SHT31;56392;51.082;17.080;2023-03-05T13:39:40;3.35;75.95
69281;SHT31;56392;51.082;17.080;2023-03-05T13:45:15;3.31;75.70
69281;SHT31;56392;51.082;17.080;2023-03-05T13:50:43;3.22;75.47
69281;SHT31;56392;51.082;17.080;2023-03-05T13:56:11;3.24;74.93
69281;SHT31;56392;51.082;17.080;2023-03-05T14:01:41;3.19;75.02
69281;SHT31;56392;51.082;17.080;2023-03-05T14:07:21;3.22;75.57
69281;SHT31;56392;51.082;17.080;2023-03-05T14:12:49;3.24;75.64
69281;SHT31;56392;51.082;17.080;2023-03-05T14:18:17;3.24;76.03
69281;SHT31;56392;51.082;17.080;2023-03-05T14:23:43;3.28;76.01
69281;SHT31;56392;51.082;17.080;2023-03-05T14:29:13;3.43;76.00
69281;SHT31;56392;51.082;17.080;2023-03-05T14:34:40;3.51;75.20
69281;SHT31;56392;51.082;17.080;2023-03-05T14:40:16;3.65;74.79
69281;SHT31;56392;51.082;17.080;2023-03-05T14:45:41;3.62;74.48
69281;SHT31;56392;51.082;17.080;2023-03-05T14:51:06;3.65;74.70
69281;SHT31;56392;51.082;17.080;2023-03-05T14:56:31;3.73;74.46
69281;SHT31;56392;51.082;17.080;2023-03-05T15:01:55;3.70;74.54
69281;SHT31;56392;51.082;17.080;2023-03-05T15:07:21;3.73;73.71
69281;SHT31;56392;51.082;17.080;2023-03-05T15:12:46;3.77;73.59
69281;SHT31;56392;51.082;17.080;2023-03-05T15:18:12;3.80;72.63
69281;SHT31;56392;51.082;17.080;2023-03-05T15:23:35;3.76;72.42
69281;SHT31;56392;51.082;17.080;2023-03-05T15:29:00;3.76;72.62
69281;SHT31;56392;51.082;17.080;2023-03-05T15:34:23;3.67;74.28
69281;SHT31;56392;51.082;17.080;2023-03-05T15:39:47;3.58;74.61
69281;SHT31;56392;51.082;17.080;2023-03-05T15:45:14;3.49;75.82
69281;SHT31;56392;51.082;17.080;2023-03-05T15:50:38;3.46;75.26
69281;SHT31;56392;51.082;17.080;2023-03-05T15:56:02;3.42;76.39
69281;SHT31;56392;51.082;17.080;2023-03-05T16:01:27;3.39;76.60
69281;SHT31;56392;51.082;17.080;2023-03-05T16:06:51;3.38;76.42
69281;SHT31;56392;51.082;17.080;2023-03-05T16:12:16;3.42;76.46
69281;SHT31;56392;51.082;17.080;2023-03-05T16:17:44;3.45;76.19
69281;SHT31;56392;51.082;17.080;2023-03-05T16:23:08;3.40;76.91
69281;SHT31;56392;51.082;17.080;2023-03-05T16:28:31;3.38;77.35
69281;SHT31;56392;51.082;17.080;2023-03-05T16:33:55;3.34;77.42
69281;SHT31;56392;51.082;17.080;2023-03-05T16:39:19;3.25;78.40
69281;SHT31;56392;51.082;17.080;2023-03-05T16:44:43;3.19;78.45
69281;SHT31;56392;51.082;17.080;2023-03-05T16:50:10;3.12;78.94
69281;SHT31;56392;51.082;17.080;2023-03-05T16:55:35;3.16;78.84
69281;SHT31;56392;51.082;17.080;2023-03-05T17:00:58;3.09;79.42
69281;SHT31;56392;51.082;17.080;2023-03-05T17:06:25;2.95;80.12
69281;SHT31;56392;51.082;17.080;2023-03-05T17:11:48;2.85;79.52
69281;SHT31;56392;51.082;17.080;2023-03-05T17:17:11;2.80;79.49
69281;SHT31;56392;51.082;17.080;2023-03-05T17:22:36;2.67;80.09
69281;SHT31;56392;51.082;17.080;2023-03-05T17:27:59;2.66;80.07
69281;SHT31;56392;51.082;17.080;2023-03-05T17:33:22;2.63;80.47
69281;SHT31;56392;51.082;17.080;2023-03-05T17:38:47;2.60;80.58
69281;SHT31;56392;51.082;17.080;2023-03-05T17:44:11;2.54;80.44
69281;SHT31;56392;51.082;17.080;2023-03-05T17:49:34;2.54;80.02
69281;SHT31;56392;51.082;17.080;2023-03-05T17:54:59;2.60;80.11
69281;SHT31;56392;51.082;17.080;2023-03-05T18:00:23;2.54;79.88
69281;SHT31;56392;51.082;17.080;2023-03-05T18:05:47;2.54;79.58
69281;SHT31;56392;51.082;17.080;2023-03-05T18:11:12;2.53;79.56
69281;SHT31;56392;51.082;17.080;2023-03-05T18:16:36;2.53;79.74
69281;SHT31;56392;51.082;17.080;2023-03-05T18:21:59;2.57;79.19
69281;SHT31;56392;51.082;17.080;2023-03-05T18:27:24;2.52;79.72
69281;SHT31;56392;51.082;17.080;2023-03-05T18:32:47;2.52;79.77
69281;SHT31;56392;51.082;17.080;2023-03-05T18:38:12;2.53;79.76
69281;SHT31;56392;51.082;17.080;2023-03-05T18:43:36;2.52;79.52
69281;SHT31;56392;51.082;17.080;2023-03-05T18:49:01;2.53;79.51
69281;SHT31;56392;51.082;17.080;2023-03-05T18:54:24;2.54;79.55
69281;SHT31;56392;51.082;17.080;2023-03-05T18:59:49;2.57;79.19
69281;SHT31;56392;51.082;17.080;2023-03-05T19:05:13;2.54;79.38
69281;SHT31;56392;51.082;17.080;2023-03-05T19:10:38;2.50;79.53
69281;SHT31;56392;51.082;17.080;2023-03-05T19:16:13;2.50;79.45
69281;SHT31;56392;51.082;17.080;2023-03-05T19:21:38;2.47;79.79
69281;SHT31;56392;51.082;17.080;2023-03-05T19:27:01;2.47;79.56
69281;SHT31;56392;51.082;17.080;2023-03-05T19:32:32;2.46;79.60
69281;SHT31;56392;51.082;17.080;2023-03-05T19:37:55;2.46;79.36
69281;SHT31;56392;51.082;17.080;2023-03-05T19:43:18;2.46;79.46
69281;SHT31;56392;51.082;17.080;2023-03-05T19:48:43;2.49;79.60
69281;SHT31;56392;51.082;17.080;2023-03-05T19:54:07;2.46;79.51
69281;SHT31;56392;51.082;17.080;2023-03-05T19:59:30;2.44;79.53
69281;SHT31;56392;51.082;17.080;2023-03-05T20:04:55;2.39;79.35
69281;SHT31;56392;51.082;17.080;2023-03-05T20:10:18;2.37;79.63
69281;SHT31;56392;51.082;17.080;2023-03-05T20:15:44;2.32;79.58
69281;SHT31;56392;51.082;17.080;2023-03-05T20:21:09;2.33;79.69
69281;SHT31;56392;51.082;17.080;2023-03-05T20:26:38;2.32;79.56
69281;SHT31;56392;51.082;17.080;2023-03-05T20:32:02;2.32;79.58
69281;SHT31;56392;51.082;17.080;2023-03-05T20:37:27;2.29;79.26
69281;SHT31;56392;51.082;17.080;2023-03-05T20:43:00;2.28;79.41
69281;SHT31;56392;51.082;17.080;2023-03-05T20:48:25;2.26;79.35
69281;SHT31;56392;51.082;17.080;2023-03-05T20:53:52;2.26;79.38
69281;SHT31;56392;51.082;17.080;2023-03-05T20:59:17;2.19;79.53
69281;SHT31;56392;51.082;17.080;2023-03-05T21:04:40;2.25;79.59
69281;SHT31;56392;51.082;17.080;2023-03-05T21:10:06;2.22;79.61
69281;SHT31;56392;51.082;17.080;2023-03-05T21:15:29;2.19;79.47
69281;SHT31;56392;51.082;17.080;2023-03-05T21:20:53;2.19;79.54
69281;SHT31;56392;51.082;17.080;2023-03-05T21:26:17;2.11;79.92
69281;SHT31;56392;51.082;17.080;2023-03-05T21:31:41;2.09;80.39
69281;SHT31;56392;51.082;17.080;2023-03-05T21:37:04;2.12;80.06
69281;SHT31;56392;51.082;17.080;2023-03-05T21:42:29;2.13;80.14
69281;SHT31;56392;51.082;17.080;2023-03-05T21:47:54;2.15;79.47
69281;SHT31;56392;51.082;17.080;2023-03-05T21:53:19;2.19;79.58
69281;SHT31;56392;51.082;17.080;2023-03-05T21:58:45;2.13;79.31
69281;SHT31;56392;51.082;17.080;2023-03-05T22:04:08;2.15;79.29
69281;SHT31;56392;51.082;17.080;2023-03-05T22:09:31;2.12;79.29
69281;SHT31;56392;51.082;17.080;2023-03-05T22:14:56;2.11;79.77
69281;SHT31;56392;51.082;17.080;2023-03-05T22:20:19;2.11;80.01
69281;SHT31;56392;51.082;17.080;2023-03-05T22:25:42;2.12;79.42
69281;SHT31;56392;51.082;17.080;2023-03-05T22:31:07;2.16;79.02
69281;SHT31;56392;51.082;17.080;2023-03-05T22:36:31;2.18;78.87
69281;SHT31;56392;51.082;17.080;2023-03-05T22:41:54;2.15;78.83
69281;SHT31;56392;51.082;17.080;2023-03-05T22:47:19;2.15;78.94
69281;SHT31;56392;51.082;17.080;2023-03-05T22:52:42;2.18;78.96
69281;SHT31;56392;51.082;17.080;2023-03-05T22:58:05;2.15;79.07
69281;SHT31;56392;51.082;17.080;2023-03-05T23:03:29;2.12;78.98
69281;SHT31;56392;51.082;17.080;2023-03-05T23:08:52;2.13;79.10
69281;SHT31;56392;51.082;17.080;2023-03-05T23:14:15;2.15;79.06
69281;SHT31;56392;51.082;17.080;2023-03-05T23:19:39;2.12;79.04
69281;SHT31;56392;51.082;17.080;2023-03-05T23:25:03;2.12;79.04
69281;SHT31;56392;51.082;17.080;2023-03-05T23:30:27;2.11;79.24
69281;SHT31;56392;51.082;17.080;2023-03-05T23:35:53;2.12;79.08
69281;SHT31;56392;51.082;17.080;2023-03-05T23:41:16;2.09;78.86
69281;SHT31;56392;51.082;17.080;2023-03-05T23:46:39;2.02;78.69
69281;SHT31;56392;51.082;17.080;2023-03-05T23:52:04;1.94;79.03
69281;SHT31;56392;51.082;17.080;2023-03-05T23:57:27;1.86;79.00
